Time;durP1;ratioP1;P1;durP2;ratioP2;P2;SDS_P1;SDS_P2;PMS_P1;PMS_P2;Temp;Humidity;BMP_temperature;BMP_pressure;BME280_temperature;BME280_humidity;BME280_pressure;Samples;Min_cycle;Max_cycle;Signal;HPM_P1;HPM_P2
2022/10/22 00:02:20;;;;;;;;;;;;;;;;;;5052803;28;8872;-83
2022/10/22 00:04:47;;;;;;;;;;;;;;;;;;5052787;28;7163;-82
2022/10/22 00:07:13;;;;;;;;;;;;;;;;;;5052617;28;8733;-82
2022/10/22 00:09:39;;;;;;;;;;;;;;;;;;5052660;28;8429;-84
2022/10/22 00:12:04;;;;;;;;;;;;;;;;;;5052242;28;8301;-83
2022/10/22 00:14:30;;;;;;;;;;;;;;;;;;5052265;28;7368;-83
2022/10/22 00:16:55;;;;;;;;;;;;;;;;;;5053123;28;8540;-80
2022/10/22 00:19:20;;;;;;;;;;;;;;;;;;5051789;28;7143;-81
2022/10/22 00:21:46;;;;;;;;;;;;;;;;;;5052031;28;7493;-82
2022/10/22 00:24:11;;;;;;;;;;;;;;;;;;5051824;28;7155;-82
2022/10/22 00:26:38;;;;;;;;;;;;;;;;;;5052530;28;9342;-83
2022/10/22 00:29:03;;;;;;;;;;;;;;;;;;5052083;28;8476;-83
2022/10/22 00:31:29;;;;;;;;;;;;;;;;;;5052276;28;8430;-82
2022/10/22 00:33:54;;;;;;;;;;;;;;;;;;5051737;28;8767;-82
2022/10/22 00:36:20;;;;;;;;;;;;;;;;;;5052310;28;7147;-82
2022/10/22 00:38:45;;;;;;;;;;;;;;;;;;5052160;28;7121;-83
2022/10/22 00:41:11;;;;;;;;;;;;;;;;;;5051998;28;8860;-82
2022/10/22 00:43:54;;;;;;;;;;;;;;;;;;5051336;28;8400;-82
2022/10/22 00:46:20;;;;;;;;;;;;;;;;;;5051535;28;8289;-82
2022/10/22 00:48:45;;;;;;;;;;;;;;;;;;5051584;28;8462;-81
2022/10/22 00:51:11;;;;;;;;;;;;;;;;;;5050930;28;8243;-82
2022/10/22 00:53:40;;;;;;;;;;;;;;;;;;5051418;28;7158;-83
2022/10/22 00:56:07;;;;;;;;;;;;;;;;;;5051567;28;7165;-82
2022/10/22 00:58:38;;;;;;;;;;;;;;;;;;5051738;28;8441;-82
2022/10/22 01:01:05;;;;;;;;;;;;;;;;;;5051343;28;8975;-82
2022/10/22 01:03:31;;;;;;;;;;;;;;;;;;5035127;28;7152;-83
2022/10/22 01:05:59;;;;;;;;;;;;;;;;;;5051371;28;8397;-83
2022/10/22 01:08:43;;;;;;;;;;;;;;;;;;5051439;28;8588;-82
2022/10/22 01:11:18;;;;;;;;;;;;;;;;;;5034599;28;7188;-82
2022/10/22 01:13:59;;;;;;;;;;;;;;;;;;5051705;28;8311;-82
2022/10/22 01:16:41;;;;;;;;;;;;;;;;;;5034516;28;8807;-82
2022/10/22 01:19:36;;;;;;;;;;;;;;;;;;5050887;28;7184;-82
2022/10/22 01:22:28;;;;;;;;;;;;;;;;;;5051140;28;7140;-84
2022/10/22 01:25:17;;;;;;;;;;;;;;;;;;5064257;28;8333;-82
2022/10/22 01:27:52;;;;;;;;;;;;;;;;;;5059006;28;8426;-81
2022/10/22 01:30:19;;;;;;;;;;;;;;;;;;5051163;28;8873;-81
2022/10/22 01:32:51;;;;;;;;;;;;;;;;;;5050876;28;7411;-82
2022/10/22 01:35:20;;;;;;;;;;;;;;;;;;5050392;28;8411;-82
2022/10/22 01:37:49;;;;;;;;;;;;;;;;;;5051152;28;8602;-83
2022/10/22 01:40:16;;;;;;;;;;;;;;;;;;5050298;28;7040;-83
2022/10/22 01:42:42;;;;;;;;;;;;;;;;;;5050538;28;8508;-82
2022/10/22 01:45:09;;;;;;;;;;;;;;;;;;5050414;28;7162;-83
2022/10/22 01:47:47;;;;;;;;;;;;;;;;;;5051435;28;7276;-82
2022/10/22 01:50:22;;;;;;;;;;;;;;;;;;5034068;28;7118;-82
2022/10/22 01:52:47;;;;;;;;;;;;;;;;;;5033940;28;7431;-83
2022/10/22 01:55:30;;;;;;;;;;;;;;;;;;5033918;28;8688;-85
2022/10/22 01:58:13;;;;;;;;;;;;;;;;;;5050786;28;7062;-81
2022/10/22 02:00:44;;;;;;;;;;;;;;;;;;5050723;28;8411;-81
2022/10/22 02:03:18;;;;;;;;;;;;;;;;;;5050790;28;8732;-82
2022/10/22 02:05:54;;;;;;;;;;;;;;;;;;5051984;28;8476;-83
2022/10/22 02:08:23;;;;;;;;;;;;;;;;;;5050542;28;7139;-83
2022/10/22 02:10:51;;;;;;;;;;;;;;;;;;5051411;28;8428;-83
2022/10/22 02:13:22;;;;;;;;;;;;;;;;;;5050295;28;8528;-83
2022/10/22 02:15:50;;;;;;;;;;;;;;;;;;5050135;28;8585;-82
2022/10/22 02:18:20;;;;;;;;;;;;;;;;;;5049973;28;8436;-82
2022/10/22 02:20:47;;;;;;;;;;;;;;;;;;5050266;28;7158;-83
2022/10/22 02:23:12;;;;;;;;;;;;;;;;;;5050094;28;9034;-82
2022/10/22 02:25:40;;;;;;;;;;;;;;;;;;5050946;28;7391;-82
2022/10/22 02:28:13;;;;;;;;;;;;;;;;;;5050400;28;9290;-83
2022/10/22 02:30:42;;;;;;;;;;;;;;;;;;5049939;28;7063;-84
2022/10/22 02:33:13;;;;;;;;;;;;;;;;;;5050405;28;8413;-83
2022/10/22 02:35:41;;;;;;;;;;;;;;;;;;5050082;28;8468;-83
2022/10/22 02:38:09;;;;;;;;;;;;;;;;;;5050467;28;8487;-82
2022/10/22 02:40:34;;;;;;;;;;;;;;;;;;5049990;28;7174;-82
2022/10/22 02:43:03;;;;;;;;;;;;;;;;;;5049736;28;7166;-82
2022/10/22 02:45:28;;;;;;;;;;;;;;;;;;5050710;28;8391;-82
2022/10/22 02:47:54;;;;;;;;;;;;;;;;;;5049902;28;7108;-82
2022/10/22 02:50:19;;;;;;;;;;;;;;;;;;5050335;28;7166;-83
2022/10/22 02:52:45;;;;;;;;;;;;;;;;;;5049532;28;7373;-82
2022/10/22 02:55:10;;;;;;;;;;;;;;;;;;5050158;28;8705;-82
2022/10/22 02:57:36;;;;;;;;;;;;;;;;;;5049965;28;8423;-83
2022/10/22 03:00:02;;;;;;;;;;;;;;;;;;5049524;28;7179;-83
2022/10/22 03:02:28;;;;;;;;;;;;;;;;;;5049371;28;7172;-83
2022/10/22 03:04:53;;;;;;;;;;;;;;;;;;5049666;28;8282;-82
2022/10/22 03:07:19;;;;;;;;;;;;;;;;;;5049889;28;8302;-83
2022/10/22 03:09:44;;;;;;;;;;;;;;;;;;5050344;28;8406;-82
2022/10/22 03:12:10;;;;;;;;;;;;;;;;;;5049733;28;7160;-82
2022/10/22 03:14:35;;;;;;;;;;;;;;;;;;5050059;28;7151;-83
2022/10/22 03:17:01;;;;;;;;;;;;;;;;;;5053397;28;7230;-83
2022/10/22 03:19:26;;;;;;;;;;;;;;;;;;5052927;28;8358;-82
2022/10/22 03:21:56;;;;;;;;;;;;;;;;;;5052901;28;7149;-83
2022/10/22 03:24:25;;;;;;;;;;;;;;;;;;5053563;28;7219;-83
2022/10/22 03:26:51;;;;;;;;;;;;;;;;;;5053399;28;7189;-83
2022/10/22 03:29:19;;;;;;;;;;;;;;;;;;5052774;28;7233;-81
2022/10/22 03:31:45;;;;;;;;;;;;;;;;;;5052861;28;8403;-82
2022/10/22 03:34:12;;;;;;;;;;;;;;;;;;5053182;28;7132;-82
2022/10/22 03:36:38;;;;;;;;;;;;;;;;;;5053205;28;7162;-80
2022/10/22 03:39:05;;;;;;;;;;;;;;;;;;5052633;28;6808;-83
2022/10/22 03:41:31;;;;;;;;;;;;;;;;;;5053241;28;9396;-83
2022/10/22 03:44:00;;;;;;;;;;;;;;;;;;5053721;28;7402;-84
2022/10/22 03:46:25;;;;;;;;;;;;;;;;;;5052821;28;7284;-82
2022/10/22 03:48:51;;;;;;;;;;;;;;;;;;5052993;28;6800;-83
2022/10/22 03:51:16;;;;;;;;;;;;;;;;;;5052544;28;8580;-83
2022/10/22 03:53:42;;;;;;;;;;;;;;;;;;5052673;28;7366;-83
2022/10/22 03:56:09;;;;;;;;;;;;;;;;;;5053166;28;7138;-83
2022/10/22 03:58:36;;;;;;;;;;;;;;;;;;5052291;28;7449;-82
2022/10/22 04:01:08;;;;;;;;;;;;;;;;;;5052457;28;7019;-83
2022/10/22 04:03:34;;;;;;;;;;;;;;;;;;5052834;28;8022;-83
2022/10/22 04:06:01;;;;;;;;;;;;;;;;;;5053008;28;8432;-83
2022/10/22 04:08:26;;;;;;;;;;;;;;;;;;5035544;28;7338;-83
2022/10/22 04:10:52;;;;;;;;;;;;;;;;;;5052623;28;8578;-80
2022/10/22 04:13:18;;;;;;;;;;;;;;;;;;5051857;28;7421;-82
2022/10/22 04:15:43;;;;;;;;;;;;;;;;;;5052207;28;8290;-81
2022/10/22 04:18:08;;;;;;;;;;;;;;;;;;5051923;28;8291;-82
2022/10/22 04:20:34;;;;;;;;;;;;;;;;;;5051943;28;8742;-83
2022/10/22 04:22:59;;;;;;;;;;;;;;;;;;5052572;28;7134;-83
2022/10/22 04:25:25;;;;;;;;;;;;;;;;;;5051899;28;7182;-83
2022/10/22 04:27:50;;;;;;;;;;;;;;;;;;5050981;28;8398;-83
2022/10/22 04:30:16;;;;;;;;;;;;;;;;;;5051940;28;7122;-83
2022/10/22 04:32:41;;;;;;;;;;;;;;;;;;5051790;28;8755;-84
2022/10/22 04:35:07;;;;;;;;;;;;;;;;;;5051601;28;8414;-83
2022/10/22 04:37:33;;;;;;;;;;;;;;;;;;5052185;28;7407;-84
2022/10/22 04:39:58;;;;;;;;;;;;;;;;;;5051917;28;7034;-81
2022/10/22 04:42:24;;;;;;;;;;;;;;;;;;5051211;28;8486;-84
2022/10/22 04:44:49;;;;;;;;;;;;;;;;;;5051994;28;8839;-84
2022/10/22 04:47:15;;;;;;;;;;;;;;;;;;5051719;28;8369;-83
2022/10/22 04:49:41;;;;;;;;;;;;;;;;;;5051661;28;7156;-82
2022/10/22 04:52:06;;;;;;;;;;;;;;;;;;5051567;28;7013;-82
2022/10/22 04:54:32;;;;;;;;;;;;;;;;;;5052587;28;7231;-83
2022/10/22 04:56:57;;;;;;;;;;;;;;;;;;5051461;28;8319;-82
2022/10/22 04:59:23;;;;;;;;;;;;;;;;;;5051196;28;7026;-83
2022/10/22 05:01:48;;;;;;;;;;;;;;;;;;5051077;28;7341;-82
2022/10/22 05:04:15;;;;;;;;;;;;;;;;;;5050982;28;7217;-83
2022/10/22 05:06:41;;;;;;;;;;;;;;;;;;5051454;28;7079;-83
2022/10/22 05:09:10;;;;;;;;;;;;;;;;;;5052236;28;7083;-82
2022/10/22 05:11:40;;;;;;;;;;;;;;;;;;5051170;28;7028;-83
2022/10/22 05:14:08;;;;;;;;;;;;;;;;;;5051006;28;7369;-83
2022/10/22 05:16:34;;;;;;;;;;;;;;;;;;5050882;28;7169;-83
2022/10/22 05:19:01;;;;;;;;;;;;;;;;;;5050777;28;8759;-83
2022/10/22 05:21:27;;;;;;;;;;;;;;;;;;5051351;28;7433;-82
2022/10/22 05:23:54;;;;;;;;;;;;;;;;;;5051020;28;8402;-83
2022/10/22 05:26:22;;;;;;;;;;;;;;;;;;5051146;28;8787;-84
2022/10/22 05:28:49;;;;;;;;;;;;;;;;;;5051821;28;7145;-84
2022/10/22 05:31:15;;;;;;;;;;;;;;;;;;5051253;28;7177;-83
2022/10/22 05:33:42;;;;;;;;;;;;;;;;;;5047237;28;8475;-78
2022/10/22 05:36:11;;;;;;;;;;;;;;;;;;5030210;28;7178;-81
2022/10/22 05:38:36;;;;;;;;;;;;;;;;;;5013721;28;9418;-82
2022/10/22 05:41:12;;;;;;;;;;;;;;;;;;5029539;28;7118;-83
2022/10/22 05:43:37;;;;;;;;;;;;;;;;;;5048248;28;7259;-82
2022/10/22 05:46:04;;;;;;;;;;;;;;;;;;5049990;28;7124;-81
2022/10/22 05:48:30;;;;;;;;;;;;;;;;;;5034333;28;7021;-82
2022/10/22 05:50:55;;;;;;;;;;;;;;;;;;5047320;28;7068;-83
2022/10/22 05:53:21;;;;;;;;;;;;;;;;;;5037107;28;8488;-81
2022/10/22 05:55:46;;;;;;;;;;;;;;;;;;5049808;28;7116;-83
2022/10/22 05:58:13;;;;;;;;;;;;;;;;;;5049610;28;7222;-82
2022/10/22 06:00:38;;;;;;;;;;;;;;;;;;5049956;28;7276;-83
2022/10/22 06:03:04;;;;;;;;;;;;;;;;;;5049133;28;7245;-82
2022/10/22 06:05:29;;;;;;;;;;;;;;;;;;5049984;28;8478;-82
2022/10/22 06:07:56;;;;;;;;;;;;;;;;;;5049227;28;7029;-82
2022/10/22 06:10:22;;;;;;;;;;;;;;;;;;5048487;28;7183;-83
2022/10/22 06:12:48;;;;;;;;;;;;;;;;;;5047673;28;8324;-84
2022/10/22 06:15:16;;;;;;;;;;;;;;;;;;5050280;28;7043;-83
2022/10/22 06:17:46;;;;;;;;;;;;;;;;;;5043141;28;8338;-77
2022/10/22 06:20:11;;;;;;;;;;;;;;;;;;5044154;28;8490;-79
2022/10/22 06:22:37;;;;;;;;;;;;;;;;;;5043790;28;7009;-77
2022/10/22 06:25:03;;;;;;;;;;;;;;;;;;5047733;28;8348;-82
2022/10/22 06:27:29;;;;;;;;;;;;;;;;;;5033437;28;7176;-84
2022/10/22 06:29:54;;;;;;;;;;;;;;;;;;5049307;28;8469;-86
2022/10/22 06:32:19;;;;;;;;;;;;;;;;;;5033133;28;8411;-86
2022/10/22 06:34:45;;;;;;;;;;;;;;;;;;5049727;28;8391;-86
2022/10/22 06:37:12;;;;;;;;;;;;;;;;;;5049947;28;8408;-85
2022/10/22 06:39:38;;;;;;;;;;;;;;;;;;5049860;28;7546;-81
2022/10/22 06:42:03;;;;;;;;;;;;;;;;;;5031619;28;7180;-82
2022/10/22 06:44:29;;;;;;;;;;;;;;;;;;5048266;28;8405;-83
2022/10/22 06:46:54;;;;;;;;;;;;;;;;;;5049535;28;8304;-84
2022/10/22 06:49:20;;;;;;;;;;;;;;;;;;5049189;28;8543;-82
2022/10/22 06:51:52;;;;;;;;;;;;;;;;;;5053092;28;7260;-83
2022/10/22 06:54:19;;;;;;;;;;;;;;;;;;5048280;28;7066;-82
2022/10/22 06:56:44;;;;;;;;;;;;;;;;;;5054237;28;7193;-84
2022/10/22 06:59:10;;;;;;;;;;;;;;;;;;5032939;28;6804;-77
2022/10/22 07:01:36;;;;;;;;;;;;;;;;;;5044923;28;7187;-82
2022/10/22 07:04:03;;;;;;;;;;;;;;;;;;5028994;28;8413;-78
2022/10/22 07:06:28;;;;;;;;;;;;;;;;;;5029941;28;8760;-79
2022/10/22 07:08:55;;;;;;;;;;;;;;;;;;5049323;28;7088;-80
2022/10/22 07:11:23;;;;;;;;;;;;;;;;;;5049747;28;7165;-86
2022/10/22 07:13:49;;;;;;;;;;;;;;;;;;5052745;28;7155;-83
2022/10/22 07:16:16;;;;;;;;;;;;;;;;;;5053026;28;8421;-85
2022/10/22 07:18:42;;;;;;;;;;;;;;;;;;5064063;28;7235;-84
2022/10/22 07:21:10;;;;;;;;;;;;;;;;;;5047882;28;7005;-82
2022/10/22 07:23:35;;;;;;;;;;;;;;;;;;5055315;28;7122;-80
2022/10/22 07:26:01;;;;;;;;;;;;;;;;;;5052528;28;8678;-83
2022/10/22 07:28:27;;;;;;;;;;;;;;;;;;5052417;28;7025;-82
2022/10/22 07:30:53;;;;;;;;;;;;;;;;;;5052805;28;9110;-84
2022/10/22 07:33:19;;;;;;;;;;;;;;;;;;5052410;28;7049;-77
2022/10/22 07:35:44;;;;;;;;;;;;;;;;;;5051333;28;8388;-85
2022/10/22 07:38:10;;;;;;;;;;;;;;;;;;5051768;28;8268;-85
2022/10/22 07:40:36;;;;;;;;;;;;;;;;;;5052381;28;7316;-85
2022/10/22 07:43:02;;;;;;;;;;;;;;;;;;5051718;28;8606;-83
2022/10/22 07:45:27;;;;;;;;;;;;;;;;;;5052798;28;6994;-84
2022/10/22 07:47:53;;;;;;;;;;;;;;;;;;5052087;28;7172;-85
2022/10/22 07:50:19;;;;;;;;;;;;;;;;;;5052269;28;8368;-83
2022/10/22 07:52:44;;;;;;;;;;;;;;;;;;5035117;28;7029;-84
2022/10/22 07:55:10;;;;;;;;;;;;;;;;;;5016032;28;7058;-84
2022/10/22 07:57:38;;;;;;;;;;;;;;;;;;5016372;28;7018;-85
2022/10/22 08:00:05;;;;;;;;;;;;;;;;;;5016272;28;8747;-85
2022/10/22 08:02:31;;;;;;;;;;;;;;;;;;5016736;28;8398;-84
2022/10/22 08:04:56;;;;;;;;;;;;;;;;;;5016217;28;7197;-85
2022/10/22 08:07:23;;;;;;;;;;;;;;;;;;5015828;28;7211;-84
2022/10/22 08:09:48;;;;;;;;;;;;;;;;;;5016046;28;7022;-84
2022/10/22 08:12:14;;;;;;;;;;;;;;;;;;5016668;28;8475;-83
2022/10/22 08:14:39;;;;;;;;;;;;;;;;;;5048021;28;8825;-85
2022/10/22 08:17:05;;;;;;;;;;;;;;;;;;5052092;28;8399;-85
2022/10/22 08:19:31;;;;;;;;;;;;;;;;;;5051877;28;6991;-84
2022/10/22 08:21:57;;;;;;;;;;;;;;;;;;5052558;28;8150;-84
2022/10/22 08:24:22;;;;;;;;;;;;;;;;;;5051681;28;8291;-84
2022/10/22 08:26:48;;;;;;;;;;;;;;;;;;5051805;28;7013;-82
2022/10/22 08:29:13;;;;;;;;;;;;;;;;;;5051808;28;8604;-84
2022/10/22 08:31:38;;;;;;;;;;;;;;;;;;5051644;28;7142;-83
2022/10/22 08:34:04;;;;;;;;;;;;;;;;;;5051860;28;8824;-83
2022/10/22 08:36:30;;;;;;;;;;;;;;;;;;5035530;28;7106;-83
2022/10/22 08:38:56;;;;;;;;;;;;;;;;;;5052226;28;7135;-81
2022/10/22 08:41:22;;;;;;;;;;;;;;;;;;5051846;28;8476;-83
2022/10/22 08:43:54;;;;;;;;;;;;;;;;;;5050507;28;6986;-85
2022/10/22 08:46:34;;;;;;;;;;;;;;;;;;5052548;28;8763;-81
2022/10/22 08:49:02;;;;;;;;;;;;;;;;;;5025690;28;7035;-85
2022/10/22 08:51:39;;;;;;;;;;;;;;;;;;5050335;28;7602;-86
2022/10/22 08:54:14;;;;;;;;;;;;;;;;;;5035119;28;8507;-82
2022/10/22 08:56:47;;;;;;;;;;;;;;;;;;5028527;28;7266;-82
2022/10/22 08:59:12;;;;;;;;;;;;;;;;;;5045464;28;8427;-80
2022/10/22 09:01:44;;;;;;;;;;;;;;;;;;5027315;28;8403;-79
2022/10/22 09:04:18;;;;;;;;;;;;;;;;;;5042909;28;8332;-78
2022/10/22 09:06:44;;;;;;;;;;;;;;;;;;5026120;28;7764;-79
2022/10/22 09:09:14;;;;;;;;;;;;;;;;;;5026891;28;8406;-79
2022/10/22 09:11:42;;;;;;;;;;;;;;;;;;5033349;28;8640;-83
2022/10/22 09:14:13;;;;;;;;;;;;;;;;;;5036428;28;7054;-87
2022/10/22 09:16:54;;;;;;;;;;;;;;;;;;5032458;28;7249;-82
2022/10/22 09:19:32;;;;;;;;;;;;;;;;;;5029842;28;7096;-81
2022/10/22 09:22:11;;;;;;;;;;;;;;;;;;5017935;28;7118;-84
2022/10/22 09:24:38;;;;;;;;;;;;;;;;;;5033893;28;8718;-84
2022/10/22 09:27:12;;;;;;;;;;;;;;;;;;5032553;28;6867;-83
2022/10/22 09:29:37;;;;;;;;;;;;;;;;;;5032814;28;8550;-83
2022/10/22 09:32:03;;;;;;;;;;;;;;;;;;5031899;28;7348;-84
2022/10/22 09:34:29;;;;;;;;;;;;;;;;;;5049700;28;7018;-84
2022/10/22 09:37:02;;;;;;;;;;;;;;;;;;5033499;28;7898;-83
2022/10/22 09:39:31;;;;;;;;;;;;;;;;;;5032701;28;7154;-82
2022/10/22 09:41:57;;;;;;;;;;;;;;;;;;5029961;28;8490;-82
2022/10/22 09:44:22;;;;;;;;;;;;;;;;;;5047115;28;8295;-82
2022/10/22 09:46:48;;;;;;;;;;;;;;;;;;5044743;28;8389;-83
2022/10/22 09:49:16;;;;;;;;;;;;;;;;;;5029006;28;7021;-82
2022/10/22 09:51:56;;;;;;;;;;;;;;;;;;5039220;28;7158;-82
2022/10/22 09:54:41;;;;;;;;;;;;;;;;;;5045572;28;7061;-83
2022/10/22 09:57:20;;;;;;;;;;;;;;;;;;5049749;28;8531;-82
2022/10/22 09:59:47;;;;;;;;;;;;;;;;;;5033252;28;7101;-80
2022/10/22 10:02:15;;;;;;;;;;;;;;;;;;5031452;28;7053;-83
2022/10/22 10:04:46;;;;;;;;;;;;;;;;;;5031910;28;7332;-82
2022/10/22 10:07:20;;;;;;;;;;;;;;;;;;5049682;28;7203;-82
2022/10/22 10:09:46;;;;;;;;;;;;;;;;;;5048734;28;7493;-82
2022/10/22 10:12:30;;;;;;;;;;;;;;;;;;5049073;28;7069;-79
2022/10/22 10:14:55;;;;;;;;;;;;;;;;;;5032121;28;8422;-79
2022/10/22 10:17:32;;;;;;;;;;;;;;;;;;5032501;28;8411;-82
2022/10/22 10:20:16;;;;;;;;;;;;;;;;;;5049653;28;8317;-81
2022/10/22 10:22:48;;;;;;;;;;;;;;;;;;5031969;28;7160;-84
2022/10/22 10:25:16;;;;;;;;;;;;;;;;;;5033700;28;7055;-82
2022/10/22 10:27:48;;;;;;;;;;;;;;;;;;5036789;28;8693;-82
2022/10/22 10:30:20;;;;;;;;;;;;;;;;;;5053187;28;8385;-81
2022/10/22 10:32:45;;;;;;;;;;;;;;;;;;5052421;28;7053;-83
2022/10/22 10:35:31;;;;;;;;;;;;;;;;;;5052904;28;8421;-84
2022/10/22 10:38:02;;;;;;;;;;;;;;;;;;5053319;28;7405;-80
2022/10/22 10:40:46;;;;;;;;;;;;;;;;;;5053455;28;8449;-80
2022/10/22 10:43:30;;;;;;;;;;;;;;;;;;5052813;28;8462;-80
2022/10/22 10:46:11;;;;;;;;;;;;;;;;;;5032133;28;7165;-82
2022/10/22 10:48:54;;;;;;;;;;;;;;;;;;5015267;28;7058;-84
2022/10/22 10:51:28;;;;;;;;;;;;;;;;;;5049378;28;6901;-82
2022/10/22 10:54:05;;;;;;;;;;;;;;;;;;5049476;28;8698;-82
2022/10/22 10:56:30;;;;;;;;;;;;;;;;;;5059770;28;8338;-83
2022/10/22 10:59:11;;;;;;;;;;;;;;;;;;5036398;28;7167;-84
2022/10/22 11:01:36;;;;;;;;;;;;;;;;;;5035490;28;7050;-81
2022/10/22 11:04:20;;;;;;;;;;;;;;;;;;5036383;28;8907;-83
2022/10/22 11:06:48;;;;;;;;;;;;;;;;;;5036105;28;8427;-81
2022/10/22 11:09:23;;;;;;;;;;;;;;;;;;5034980;28;8773;-83
2022/10/22 11:11:59;;;;;;;;;;;;;;;;;;5035857;28;7097;-85
2022/10/22 11:14:32;;;;;;;;;;;;;;;;;;5035911;28;7165;-82
2022/10/22 11:17:05;;;;;;;;;;;;;;;;;;5035332;28;7140;-81
2022/10/22 11:19:42;;;;;;;;;;;;;;;;;;5035682;28;7830;-83
2022/10/22 11:22:19;;;;;;;;;;;;;;;;;;5035264;28;7251;-83
2022/10/22 11:24:51;;;;;;;;;;;;;;;;;;5034909;28;7043;-82
2022/10/22 11:27:36;;;;;;;;;;;;;;;;;;5035184;28;7148;-84
2022/10/22 11:30:04;;;;;;;;;;;;;;;;;;5034961;28;8527;-82
2022/10/22 11:32:32;;;;;;;;;;;;;;;;;;5034873;28;7023;-84
2022/10/22 11:35:13;;;;;;;;;;;;;;;;;;5035423;28;8414;-82
2022/10/22 11:37:41;;;;;;;;;;;;;;;;;;5034750;28;8466;-84
2022/10/22 11:40:15;;;;;;;;;;;;;;;;;;5035717;28;8441;-84
2022/10/22 11:42:46;;;;;;;;;;;;;;;;;;5034438;28;8711;-82
2022/10/22 11:45:12;;;;;;;;;;;;;;;;;;5035524;28;8986;-82
2022/10/22 11:47:55;;;;;;;;;;;;;;;;;;5035758;28;8521;-84
2022/10/22 11:50:26;;;;;;;;;;;;;;;;;;5036157;28;8533;-82
2022/10/22 11:52:57;;;;;;;;;;;;;;;;;;5035405;28;8663;-82
2022/10/22 11:55:30;;;;;;;;;;;;;;;;;;5035333;28;8316;-82
2022/10/22 11:57:58;;;;;;;;;;;;;;;;;;5035756;28;8603;-83
2022/10/22 12:00:46;;;;;;;;;;;;;;;;;;5035211;28;7037;-84
2022/10/22 12:03:39;;;;;;;;;;;;;;;;;;5030149;28;8401;-82
2022/10/22 12:06:10;;;;;;;;;;;;;;;;;;5033844;28;7433;-83
2022/10/22 12:08:43;;;;;;;;;;;;;;;;;;5035492;28;8615;-83
2022/10/22 12:11:08;;;;;;;;;;;;;;;;;;5035455;28;7166;-82
2022/10/22 12:13:52;;;;;;;;;;;;;;;;;;5034979;28;8561;-85
2022/10/22 12:16:23;;;;;;;;;;;;;;;;;;5035349;28;8430;-81
2022/10/22 12:18:48;;;;;;;;;;;;;;;;;;5036020;28;7179;-84
2022/10/22 12:21:15;;;;;;;;;;;;;;;;;;5034917;28;8636;-87
2022/10/22 12:23:43;;;;;;;;;;;;;;;;;;5035152;28;7176;-83
2022/10/22 12:26:26;;;;;;;;;;;;;;;;;;5035659;28;8497;-84
2022/10/22 12:28:56;;;;;;;;;;;;;;;;;;5035072;28;8343;-83
2022/10/22 12:31:21;;;;;;;;;;;;;;;;;;5034896;28;8711;-83
2022/10/22 12:33:48;;;;;;;;;;;;;;;;;;5035202;28;7028;-85
2022/10/22 12:36:14;;;;;;;;;;;;;;;;;;5034874;28;7231;-84
2022/10/22 12:38:45;;;;;;;;;;;;;;;;;;5034637;28;8606;-83
2022/10/22 12:41:12;;;;;;;;;;;;;;;;;;5034752;28;7266;-83
2022/10/22 12:43:40;;;;;;;;;;;;;;;;;;5034629;28;7036;-83
2022/10/22 12:46:15;;;;;;;;;;;;;;;;;;5051292;28;7361;-81
2022/10/22 12:48:43;;;;;;;;;;;;;;;;;;5050274;28;7195;-84
2022/10/22 12:51:14;;;;;;;;;;;;;;;;;;5050992;28;8391;-80
2022/10/22 12:53:49;;;;;;;;;;;;;;;;;;5051364;28;7036;-81
2022/10/22 12:56:19;;;;;;;;;;;;;;;;;;5051033;28;8469;-84
2022/10/22 12:58:47;;;;;;;;;;;;;;;;;;5050800;28;8644;-82
2022/10/22 13:01:15;;;;;;;;;;;;;;;;;;5052404;28;8299;-80
2022/10/22 13:03:43;;;;;;;;;;;;;;;;;;5051265;28;8723;-82
2022/10/22 13:06:18;;;;;;;;;;;;;;;;;;5051135;28;7362;-82
2022/10/22 13:08:44;;;;;;;;;;;;;;;;;;5051070;28;8742;-82
2022/10/22 13:11:10;;;;;;;;;;;;;;;;;;5050638;28;7158;-81
2022/10/22 13:13:36;;;;;;;;;;;;;;;;;;5051065;28;8427;-82
2022/10/22 13:16:19;;;;;;;;;;;;;;;;;;5050859;28;8408;-83
2022/10/22 13:18:45;;;;;;;;;;;;;;;;;;5050900;28;7142;-84
2022/10/22 13:21:46;;;;;;;;;;;;;;;;;;5057797;28;8634;-80
2022/10/22 13:24:19;;;;;;;;;;;;;;;;;;4987936;28;7120;-88
2022/10/22 13:26:48;;;;;;;;;;;;;;;;;;5021819;28;6846;-83
2022/10/22 13:29:20;;;;;;;;;;;;;;;;;;5050005;28;8296;-84
2022/10/22 13:31:48;;;;;;;;;;;;;;;;;;5050525;28;6890;-83
2022/10/22 13:34:17;;;;;;;;;;;;;;;;;;5051027;28;8268;-84
2022/10/22 13:36:42;;;;;;;;;;;;;;;;;;5050402;28;8386;-82
2022/10/22 13:39:26;;;;;;;;;;;;;;;;;;5050235;28;9157;-82
2022/10/22 13:41:51;;;;;;;;;;;;;;;;;;5050191;28;7148;-81
2022/10/22 13:44:18;;;;;;;;;;;;;;;;;;5050230;28;7149;-83
2022/10/22 13:46:44;;;;;;;;;;;;;;;;;;5034782;28;7943;-84
2022/10/22 13:49:15;;;;;;;;;;;;;;;;;;5050505;28;7203;-85
2022/10/22 13:51:42;;;;;;;;;;;;;;;;;;5049893;28;7188;-84
2022/10/22 13:54:16;;;;;;;;;;;;;;;;;;5050067;28;7154;-84
2022/10/22 13:56:42;;;;;;;;;;;;;;;;;;5050493;28;7156;-83
2022/10/22 13:59:08;;;;;;;;;;;;;;;;;;5033388;28;7026;-84
2022/10/22 14:01:35;;;;;;;;;;;;;;;;;;5050496;28;8696;-84
2022/10/22 14:04:03;;;;;;;;;;;;;;;;;;5053295;28;8441;-84
2022/10/22 14:06:30;;;;;;;;;;;;;;;;;;5061569;28;7038;-84
2022/10/22 14:08:58;;;;;;;;;;;;;;;;;;5050256;28;8629;-84
2022/10/22 14:11:26;;;;;;;;;;;;;;;;;;5050745;28;7150;-84
2022/10/22 14:13:52;;;;;;;;;;;;;;;;;;5050146;28;7062;-84
2022/10/22 14:16:23;;;;;;;;;;;;;;;;;;5049936;28;7179;-84
2022/10/22 14:18:50;;;;;;;;;;;;;;;;;;5050083;28;7381;-83
2022/10/22 14:21:17;;;;;;;;;;;;;;;;;;5050110;28;7168;-83
2022/10/22 14:23:45;;;;;;;;;;;;;;;;;;5049832;28;8259;-83
2022/10/22 14:26:17;;;;;;;;;;;;;;;;;;5049632;28;7620;-84
2022/10/22 14:28:43;;;;;;;;;;;;;;;;;;5050533;28;8967;-86
2022/10/22 14:31:10;;;;;;;;;;;;;;;;;;5049878;28;8460;-84
2022/10/22 14:33:35;;;;;;;;;;;;;;;;;;5049939;28;7196;-84
2022/10/22 14:36:01;;;;;;;;;;;;;;;;;;5049841;28;8769;-83
2022/10/22 14:38:28;;;;;;;;;;;;;;;;;;5050004;28;7195;-83
2022/10/22 14:40:53;;;;;;;;;;;;;;;;;;5050302;28;8909;-84
2022/10/22 14:43:24;;;;;;;;;;;;;;;;;;5049739;28;6793;-82
2022/10/22 14:45:49;;;;;;;;;;;;;;;;;;5050181;28;8434;-85
2022/10/22 14:48:16;;;;;;;;;;;;;;;;;;5049987;28;7169;-83
2022/10/22 14:50:42;;;;;;;;;;;;;;;;;;5049595;28;8444;-82
2022/10/22 14:53:08;;;;;;;;;;;;;;;;;;5049409;28;7172;-85
2022/10/22 14:55:34;;;;;;;;;;;;;;;;;;5049645;28;7132;-84
2022/10/22 14:58:00;;;;;;;;;;;;;;;;;;5049280;28;7031;-84
2022/10/22 15:00:25;;;;;;;;;;;;;;;;;;5049647;28;8421;-84
2022/10/22 15:02:51;;;;;;;;;;;;;;;;;;5049684;28;7037;-84
2022/10/22 15:05:17;;;;;;;;;;;;;;;;;;5050263;28;7154;-83
2022/10/22 15:07:44;;;;;;;;;;;;;;;;;;5049984;28;7156;-84
2022/10/22 15:10:10;;;;;;;;;;;;;;;;;;5049860;28;8774;-83
2022/10/22 15:12:35;;;;;;;;;;;;;;;;;;5053032;28;8658;-83
2022/10/22 15:15:01;;;;;;;;;;;;;;;;;;5053383;28;8480;-84
2022/10/22 15:17:27;;;;;;;;;;;;;;;;;;5053800;28;7054;-83
2022/10/22 15:19:55;;;;;;;;;;;;;;;;;;5053112;28;8817;-79
2022/10/22 15:22:21;;;;;;;;;;;;;;;;;;5052537;28;8353;-83
2022/10/22 15:24:48;;;;;;;;;;;;;;;;;;5053137;28;8634;-82
2022/10/22 15:27:14;;;;;;;;;;;;;;;;;;5053817;28;7047;-84
2022/10/22 15:29:41;;;;;;;;;;;;;;;;;;5052924;28;7766;-85
2022/10/22 15:32:09;;;;;;;;;;;;;;;;;;5050141;28;8694;-84
2022/10/22 15:34:36;;;;;;;;;;;;;;;;;;5052212;28;8354;-83
2022/10/22 15:37:03;;;;;;;;;;;;;;;;;;5052714;28;8762;-84
2022/10/22 15:39:29;;;;;;;;;;;;;;;;;;5053167;28;8473;-83
2022/10/22 15:41:55;;;;;;;;;;;;;;;;;;5053071;28;7180;-83
2022/10/22 15:44:30;;;;;;;;;;;;;;;;;;5052550;28;8929;-84
2022/10/22 15:46:57;;;;;;;;;;;;;;;;;;5053532;28;7171;-85
2022/10/22 15:49:24;;;;;;;;;;;;;;;;;;5052570;28;7178;-84
2022/10/22 15:51:50;;;;;;;;;;;;;;;;;;5052847;28;8498;-79
2022/10/22 15:54:17;;;;;;;;;;;;;;;;;;5053019;28;6994;-84
2022/10/22 15:56:43;;;;;;;;;;;;;;;;;;5053054;28;7322;-83
2022/10/22 15:59:10;;;;;;;;;;;;;;;;;;5052717;28;7210;-84
2022/10/22 16:01:35;;;;;;;;;;;;;;;;;;5052578;28;7608;-85
2022/10/22 16:04:04;;;;;;;;;;;;;;;;;;5052895;28;8692;-85
2022/10/22 16:06:31;;;;;;;;;;;;;;;;;;5052340;28;7256;-85
2022/10/22 16:08:58;;;;;;;;;;;;;;;;;;5052509;28;7124;-84
2022/10/22 16:11:24;;;;;;;;;;;;;;;;;;5052346;28;8337;-83
2022/10/22 16:13:55;;;;;;;;;;;;;;;;;;5052082;28;8623;-85
2022/10/22 16:16:22;;;;;;;;;;;;;;;;;;5050871;28;7232;-83
2022/10/22 16:18:47;;;;;;;;;;;;;;;;;;5051762;28;8448;-81
2022/10/22 16:21:14;;;;;;;;;;;;;;;;;;5052330;28;8372;-85
2022/10/22 16:23:40;;;;;;;;;;;;;;;;;;5053628;28;7389;-83
2022/10/22 16:26:05;;;;;;;;;;;;;;;;;;5053070;28;7228;-83
2022/10/22 16:28:31;;;;;;;;;;;;;;;;;;5052064;28;8431;-84
2022/10/22 16:31:00;;;;;;;;;;;;;;;;;;5052038;28;8331;-85
2022/10/22 16:33:26;;;;;;;;;;;;;;;;;;5051517;28;8662;-85
2022/10/22 16:35:51;;;;;;;;;;;;;;;;;;5050963;28;8735;-85
2022/10/22 16:38:17;;;;;;;;;;;;;;;;;;5051453;28;8468;-83
2022/10/22 16:40:43;;;;;;;;;;;;;;;;;;5051667;28;7172;-86
2022/10/22 16:43:08;;;;;;;;;;;;;;;;;;5050368;28;7078;-85
2022/10/22 16:45:34;;;;;;;;;;;;;;;;;;5052595;28;8693;-85
2022/10/22 16:47:59;;;;;;;;;;;;;;;;;;5052676;28;7156;-86
2022/10/22 16:50:25;;;;;;;;;;;;;;;;;;5051832;28;8498;-84
2022/10/22 16:52:50;;;;;;;;;;;;;;;;;;5051726;28;7042;-84
2022/10/22 16:55:16;;;;;;;;;;;;;;;;;;5051124;28;7030;-83
2022/10/22 16:57:41;;;;;;;;;;;;;;;;;;5051086;28;7149;-83
2022/10/22 17:00:07;;;;;;;;;;;;;;;;;;5051844;28;7144;-82
2022/10/22 17:02:34;;;;;;;;;;;;;;;;;;5050956;28;7237;-82
2022/10/22 17:04:59;;;;;;;;;;;;;;;;;;5048481;28;8294;-83
2022/10/22 17:07:25;;;;;;;;;;;;;;;;;;5048734;28;7169;-81
2022/10/22 17:09:50;;;;;;;;;;;;;;;;;;5031542;28;8466;-81
2022/10/22 17:12:16;;;;;;;;;;;;;;;;;;5035210;28;8760;-79
2022/10/22 17:14:41;;;;;;;;;;;;;;;;;;5050262;28;8884;-84